createdAt,value
2019-04-20T00:01:22.878Z,101757.76
2019-04-20T00:06:21.954Z,101764.48
2019-04-20T00:11:34.924Z,101764.48
2019-04-20T00:16:31.710Z,101764.38
2019-04-20T00:21:56.365Z,101756.30
2019-04-20T00:32:11.468Z,101757.66
2019-04-20T00:37:05.155Z,101747.75
2019-04-20T00:42:12.644Z,101747.75
2019-04-20T00:47:31.773Z,101753.03
2019-04-20T00:52:37.511Z,101750.82
2019-04-20T00:57:36.865Z,101744.09
2019-04-20T01:02:45.506Z,101747.27
2019-04-20T01:08:00.175Z,101755.72
2019-04-20T01:13:08.719Z,101750.27
2019-04-20T01:18:10.638Z,101750.27
2019-04-20T01:23:17.239Z,101751.61
2019-04-20T01:28:35.854Z,101751.61
2019-04-20T01:33:36.509Z,101750.95
2019-04-20T01:38:45.119Z,101751.98
2019-04-20T01:43:35.385Z,101755.16
2019-04-20T01:48:41.334Z,101754.88
2019-04-20T01:54:09.151Z,101752.77
2019-04-20T01:59:26.661Z,101750.56
2019-04-20T02:04:37.577Z,101749.80
2019-04-20T02:09:48.352Z,101759.28
2019-04-20T02:14:50.496Z,101752.86
2019-04-20T02:20:10.419Z,101752.86
2019-04-20T02:24:57.068Z,101750.53
2019-04-20T02:30:29.940Z,101750.53
2019-04-20T02:35:53.962Z,101749.67
2019-04-20T02:40:56.812Z,101749.67
2019-04-20T02:46:15.513Z,101747.27
2019-04-20T02:51:10.528Z,101743.23
2019-04-20T02:56:12.969Z,101743.23
2019-04-20T03:01:30.934Z,101738.34
2019-04-20T03:06:30.692Z,101738.06
2019-04-20T03:11:52.938Z,101732.39
2019-04-20T03:16:45.493Z,101729.39
2019-04-20T03:22:00.404Z,101730.94
2019-04-20T03:26:59.872Z,101730.94
2019-04-20T03:32:50.177Z,101734.86
2019-04-20T03:37:38.074Z,101733.20
2019-04-20T03:42:16.043Z,101732.06
2019-04-20T03:47:31.569Z,101732.06
2019-04-20T03:52:58.308Z,101737.91
2019-04-20T03:58:31.743Z,101737.91
2019-04-20T04:08:39.006Z,101743.52
2019-04-20T04:13:37.766Z,101739.09
2019-04-20T04:18:47.211Z,101748.31
2019-04-20T04:24:02.468Z,101746.69
2019-04-20T04:29:12.683Z,101746.69
2019-04-20T04:34:17.401Z,101756.64
2019-04-20T04:39:29.366Z,101758.66
2019-04-20T04:44:23.838Z,101755.10
2019-04-20T04:49:24.920Z,101756.06
2019-04-20T04:54:30.543Z,101763.91
2019-04-20T04:59:27.538Z,101771.20
2019-04-20T05:05:19.347Z,101776.57
2019-04-20T05:09:59.188Z,101778.87
2019-04-20T05:15:10.158Z,101778.87
2019-04-20T05:20:29.044Z,101789.63
2019-04-20T05:26:04.052Z,101785.59
2019-04-20T05:30:46.915Z,101783.86
2019-04-20T05:36:28.144Z,101793.75
2019-04-20T05:41:32.709Z,101792.89
2019-04-20T05:46:37.466Z,101792.89
2019-04-20T05:51:43.262Z,101795.87
2019-04-20T05:56:52.421Z,101793.27
2019-04-20T06:01:57.659Z,101793.27
2019-04-20T06:06:59.635Z,101795.09
2019-04-20T06:12:18.008Z,101791.36
2019-04-20T06:17:31.368Z,101796.25
2019-04-20T06:22:48.332Z,101797.98
2019-04-20T06:27:52.796Z,101792.51
2019-04-20T06:33:38.799Z,101795.04
2019-04-20T06:43:46.030Z,101777.44
2019-04-20T06:48:52.343Z,101793.50
2019-04-20T06:53:52.611Z,101793.50
2019-04-20T06:59:12.558Z,101798.92
2019-04-20T07:04:33.470Z,101808.21
2019-04-20T07:09:26.255Z,101808.44
2019-04-20T07:14:11.121Z,101808.44
2019-04-20T07:19:36.535Z,101798.58
2019-04-20T07:24:55.125Z,101798.48
2019-04-20T07:29:57.096Z,101793.83
2019-04-20T07:34:56.858Z,101788.84
2019-04-20T07:40:07.510Z,101788.84
2019-04-20T07:45:16.847Z,101799.47
2019-04-20T07:50:09.132Z,101794.09
2019-04-20T07:55:33.154Z,101794.09
2019-04-20T08:00:38.547Z,101791.89
2019-04-20T08:05:30.565Z,101799.09
2019-04-20T08:10:39.446Z,101799.09
2019-04-20T08:16:07.328Z,101792.87
2019-04-20T08:20:59.595Z,101790.89
2019-04-20T08:25:52.305Z,101788.20
2019-04-20T08:31:18.218Z,101788.20
2019-04-20T08:36:33.249Z,101791.57
2019-04-20T08:41:29.694Z,101777.18
2019-04-20T08:46:57.115Z,101778.43
2019-04-20T08:51:55.077Z,101772.42
2019-04-20T08:56:42.754Z,101771.88
2019-04-20T09:01:40.692Z,101771.88
2019-04-20T09:06:57.207Z,101766.41
2019-04-20T09:12:11.907Z,101760.41
2019-04-20T09:17:08.072Z,101758.26
2019-04-20T09:22:40.531Z,101749.84
2019-04-20T09:27:43.564Z,101741.98
2019-04-20T09:33:08.021Z,101741.98
2019-04-20T09:38:11.794Z,101741.41
2019-04-20T09:43:32.329Z,101735.06
2019-04-20T09:48:42.636Z,101735.20
2019-04-20T09:53:52.623Z,101734.81
2019-04-20T09:59:09.854Z,101727.42
2019-04-20T10:03:52.490Z,101730.49
2019-04-20T10:09:00.075Z,101721.21
2019-04-20T10:14:02.233Z,101713.91
2019-04-20T10:19:08.728Z,101698.94
2019-04-20T10:24:12.578Z,101715.02
2019-04-20T10:29:17.439Z,101703.35
2019-04-20T10:34:23.998Z,101703.35
2019-04-20T10:39:28.769Z,101706.93
2019-04-20T10:44:32.774Z,101700.88
2019-04-20T10:49:37.365Z,101702.03
2019-04-20T10:54:42.652Z,101702.03
2019-04-20T10:59:47.734Z,101687.43
2019-04-20T11:04:52.644Z,101687.06
2019-04-20T11:10:10.667Z,101682.55
2019-04-20T11:15:02.954Z,101682.94
2019-04-20T11:20:07.494Z,101682.77
2019-04-20T11:25:12.431Z,101682.77
2019-04-20T11:30:16.681Z,101673.53
2019-04-20T11:35:28.082Z,101662.68
2019-04-20T11:40:26.754Z,101658.27
2019-04-20T11:45:31.067Z,101650.69
2019-04-20T11:50:35.681Z,101638.28
2019-04-20T11:55:40.431Z,101643.94
2019-04-20T12:00:58.642Z,101630.25
2019-04-20T12:05:57.468Z,101621.08
2019-04-20T12:11:03.139Z,101618.91
2019-04-20T12:16:05.688Z,101607.66
2019-04-20T12:21:10.595Z,101610.41
2019-04-20T12:26:15.041Z,101610.41
2019-04-20T12:31:22.793Z,101609.28
2019-04-20T12:36:26.032Z,101593.78
2019-04-20T12:41:37.830Z,101595.51
2019-04-20T12:46:35.993Z,101595.51
2019-04-20T12:51:47.536Z,101581.56
2019-04-20T12:56:46.572Z,101595.13
2019-04-20T13:01:51.384Z,101582.63
2019-04-20T13:06:55.467Z,101582.63
2019-04-20T13:12:11.974Z,101571.91
2019-04-20T13:17:16.531Z,101564.39
2019-04-20T13:22:21.135Z,101563.53
2019-04-20T13:33:51.933Z,101546.54
2019-04-20T13:38:56.385Z,101543.38
2019-04-20T13:44:01.986Z,101551.34
2019-04-20T13:49:07.038Z,101536.78
2019-04-20T13:54:14.986Z,101532.95
2019-04-20T13:59:48.129Z,101532.95
2019-04-20T14:04:55.084Z,101505.95
2019-04-20T14:09:59.497Z,101505.95
2019-04-20T14:15:05.011Z,101493.23
2019-04-20T14:20:13.206Z,101493.23
2019-04-20T14:25:15.340Z,101488.09
2019-04-20T14:30:19.373Z,101481.73
2019-04-20T14:35:23.178Z,101478.08
2019-04-20T14:40:28.245Z,101478.08
2019-04-20T14:45:32.380Z,101463.36
2019-04-20T14:50:36.189Z,101461.91
2019-04-20T14:55:40.070Z,101450.17
2019-04-20T15:00:58.991Z,101452.87
2019-04-20T15:06:03.376Z,101452.87
2019-04-20T15:11:07.638Z,101448.16
2019-04-20T15:16:12.724Z,101448.16
2019-04-20T15:21:17.622Z,101439.49
2019-04-20T15:26:22.458Z,101430.90
2019-04-20T15:31:26.468Z,101423.47
2019-04-20T15:36:30.243Z,101422.12
2019-04-20T15:41:35.719Z,101422.12
2019-04-20T15:46:39.985Z,101423.83
2019-04-20T15:51:46.041Z,101403.17
2019-04-20T15:56:56.942Z,101403.17
2019-04-20T16:02:00.145Z,101413.56
2019-04-20T16:07:05.418Z,101402.42
2019-04-20T16:12:10.925Z,101399.77
2019-04-20T16:17:15.263Z,101399.77
2019-04-20T16:22:21.684Z,101393.14
2019-04-20T16:27:38.543Z,101385.77
2019-04-20T16:32:42.741Z,101381.30
2019-04-20T16:37:46.653Z,101376.73
2019-04-20T16:42:50.514Z,101372.21
2019-04-20T16:47:54.530Z,101372.95
2019-04-20T16:52:59.095Z,101372.95
2019-04-20T16:58:03.824Z,101367.20
2019-04-20T17:03:09.090Z,101358.38
2019-04-20T17:08:13.202Z,101354.23
2019-04-20T17:13:30.414Z,101354.23
2019-04-20T17:18:23.545Z,101347.89
2019-04-20T17:23:27.709Z,101353.28
2019-04-20T17:28:49.205Z,101353.53
2019-04-20T17:34:04.735Z,101348.16
2019-04-20T17:39:11.434Z,101348.16
2019-04-20T17:44:29.078Z,101355.91
2019-04-20T17:49:31.632Z,101352.28
2019-04-20T17:54:31.731Z,101348.58
2019-04-20T17:59:38.131Z,101354.56
2019-04-20T18:05:14.232Z,101357.73
2019-04-20T18:10:15.309Z,101365.81
2019-04-20T18:15:21.056Z,101365.81
2019-04-20T18:20:12.663Z,101372.55
2019-04-20T18:25:38.484Z,101377.63
2019-04-20T18:30:48.846Z,101375.34
2019-04-20T18:35:47.574Z,101367.16
2019-04-20T18:41:00.426Z,101376.51
2019-04-20T18:46:12.437Z,101374.30
2019-04-20T18:51:03.818Z,101373.81
2019-04-20T18:56:08.167Z,101360.39
2019-04-20T19:01:13.229Z,101360.39
2019-04-20T19:06:18.060Z,101377.86
2019-04-20T19:11:24.964Z,101387.76
2019-04-20T19:16:49.716Z,101387.76
2019-04-20T19:21:41.071Z,101380.55
2019-04-20T19:26:50.752Z,101391.69
2019-04-20T19:32:15.858Z,101377.33
2019-04-20T19:37:06.336Z,101387.46
2019-04-20T19:42:22.387Z,101385.22
2019-04-20T19:47:28.458Z,101385.22
2019-04-20T19:52:39.622Z,101383.50
2019-04-20T19:57:37.325Z,101377.26
2019-04-20T20:02:25.924Z,101375.80
2019-04-20T20:07:38.034Z,101383.13
2019-04-20T20:12:35.684Z,101366.27
2019-04-20T20:18:01.937Z,101380.81
2019-04-20T20:22:49.793Z,101374.19
2019-04-20T20:27:57.421Z,101376.99
2019-04-20T20:33:16.028Z,101376.99
2019-04-20T20:38:13.338Z,101380.81
2019-04-20T20:43:18.436Z,101377.44
2019-04-20T20:48:30.022Z,101377.44
2019-04-20T20:53:32.868Z,101371.80
2019-04-20T20:58:37.465Z,101384.70
2019-04-20T21:03:37.004Z,101384.70
2019-04-20T21:08:44.875Z,101385.07
2019-04-20T21:13:45.220Z,101381.85
2019-04-20T21:18:59.869Z,101380.39
2019-04-20T21:24:06.600Z,101386.16
2019-04-20T21:29:03.861Z,101382.08
2019-04-20T21:34:14.490Z,101376.95
2019-04-20T21:39:22.318Z,101376.95
2019-04-20T21:44:25.220Z,101378.90
2019-04-20T21:49:38.741Z,101378.90
2019-04-20T21:54:31.963Z,101393.30
2019-04-20T21:59:43.261Z,101388.09
2019-04-20T22:04:45.245Z,101378.00
2019-04-20T22:09:53.104Z,101375.20
2019-04-20T22:15:00.763Z,101375.20
2019-04-20T22:20:11.972Z,101378.41
2019-04-20T22:25:23.497Z,101378.41
2019-04-20T22:30:12.259Z,101378.63
2019-04-20T22:35:18.818Z,101373.84
2019-04-20T22:40:28.047Z,101371.90
2019-04-20T22:45:29.541Z,101353.59
2019-04-20T22:50:46.239Z,101368.61
2019-04-20T22:56:04.381Z,101363.22
2019-04-20T23:00:53.713Z,101356.98
2019-04-20T23:05:50.991Z,101347.44
2019-04-20T23:10:55.631Z,101347.44
2019-04-20T23:16:02.194Z,101334.47
2019-04-20T23:21:08.049Z,101319.30
2019-04-20T23:26:11.427Z,101319.30
2019-04-20T23:31:20.137Z,101318.33
2019-04-20T23:36:31.897Z,101314.64
2019-04-20T23:41:28.003Z,101310.97
2019-04-20T23:46:53.473Z,101307.34
2019-04-20T23:52:21.403Z,101300.12
2019-04-20T23:57:01.831Z,101300.12
